Time;durP1;ratioP1;P1;durP2;ratioP2;P2;SDS_P1;SDS_P2;PMS_P1;PMS_P2;Temp;Humidity;BMP_temperature;BMP_pressure;BME280_temperature;BME280_humidity;BME280_pressure;Samples;Min_cycle;Max_cycle;Signal;HPM_P1;HPM_P2
2021/09/19 00:01:08;;;;;;;18.30;16.48;;;13.90;78.60;;;12.73;81.17;95810.56;4918193;28;20076;-68
2021/09/19 00:03:34;;;;;;;18.10;16.30;;;13.90;78.50;;;12.70;81.63;95805.72;4919663;28;20150;-68
2021/09/19 00:06:00;;;;;;;18.38;16.48;;;13.80;78.50;;;12.68;82.09;95797.19;4958724;28;20070;-68
2021/09/19 00:08:27;;;;;;;18.17;16.35;;;13.80;78.60;;;12.67;81.74;95805.28;4947415;28;20054;-68
2021/09/19 00:10:53;;;;;;;17.60;15.77;;;13.80;78.50;;;12.62;81.44;95797.19;4949118;28;20031;-68
2021/09/19 00:13:19;;;;;;;17.88;15.98;;;13.80;78.50;;;12.57;82.36;95790.72;4920546;28;20036;-68
2021/09/19 00:15:45;;;;;;;18.42;16.58;;;13.80;78.80;;;12.59;81.80;95795.78;4942745;28;20062;-68
2021/09/19 00:18:11;;;;;;;18.25;16.35;;;13.80;78.70;;;12.56;81.57;95793.56;4961218;28;20617;-68
2021/09/19 00:20:38;;;;;;;18.38;16.50;;;13.70;78.60;;;12.56;82.07;95799.66;4944877;28;20545;-67
2021/09/19 00:23:04;;;;;;;17.17;15.48;;;13.70;78.60;;;12.54;82.44;95795.59;4955574;28;20054;-68
2021/09/19 00:25:29;;;;;;;17.15;15.38;;;13.70;78.50;;;12.55;82.11;95798.03;4967221;28;20108;-69
2021/09/19 00:27:55;;;;;;;16.48;14.85;;;13.70;78.50;;;12.53;82.04;95794.00;4953478;28;20075;-68
2021/09/19 00:30:21;;;;;;;17.13;15.43;;;13.70;78.30;;;12.47;81.88;95794.81;4953686;28;20183;-68
2021/09/19 00:32:46;;;;;;;17.00;15.25;;;13.70;78.30;;;12.44;81.90;95795.22;4934722;28;20796;-68
2021/09/19 00:35:12;;;;;;;17.10;14.75;;;13.60;78.30;;;12.43;81.63;95799.69;4942362;28;21745;-68
2021/09/19 00:37:38;;;;;;;16.77;14.75;;;13.60;78.20;;;12.43;81.48;95798.88;4948496;28;20779;-68
2021/09/19 00:40:05;;;;;;;15.90;14.30;;;13.60;78.30;;;12.41;81.67;95800.91;4927969;28;20042;-69
2021/09/19 00:42:30;;;;;;;16.85;14.20;;;13.60;78.40;;;12.38;81.84;95796.06;4942944;28;20101;-69
2021/09/19 00:45:12;;;;;;;16.10;13.77;;;13.60;78.50;;;12.33;82.64;95783.50;4964193;28;20047;-69
2021/09/19 00:47:38;;;;;;;16.27;14.57;;;13.60;78.50;;;12.32;82.23;95791.63;4945964;28;20042;-69
2021/09/19 00:50:06;;;;;;;16.13;14.43;;;13.60;78.50;;;12.30;82.42;95789.19;4943239;28;20035;-69
2021/09/19 00:52:32;;;;;;;15.95;13.55;;;13.50;78.60;;;12.25;82.03;95789.81;4966701;28;20387;-69
2021/09/19 00:54:59;;;;;;;14.65;13.15;;;13.50;78.30;;;12.24;82.45;95801.38;4924765;28;20041;-69
2021/09/19 00:57:25;;;;;;;15.90;13.82;;;13.50;78.10;;;12.22;82.17;95800.78;4928592;28;20038;-69
2021/09/19 00:59:51;;;;;;;14.73;13.23;;;13.40;78.30;;;12.21;82.00;95795.69;4939260;28;20534;-69
2021/09/19 01:02:17;;;;;;;15.45;13.77;;;13.40;78.50;;;12.18;82.19;95788.19;4935371;28;20074;-69
2021/09/19 01:04:43;;;;;;;14.70;13.20;;;13.30;78.90;;;12.13;82.35;95793.28;4900226;28;20067;-69
2021/09/19 01:07:09;;;;;;;15.43;13.45;;;13.20;79.00;;;12.13;82.27;95794.09;4927183;28;20042;-69
2021/09/19 01:09:36;;;;;;;14.40;12.85;;;13.30;78.90;;;12.09;82.09;95787.63;4968666;28;20371;-69
2021/09/19 01:12:03;;;;;;;15.80;13.30;;;13.30;78.90;;;12.08;82.48;95772.81;4927521;28;20038;-68
2021/09/19 01:14:29;;;;;;;14.45;13.05;;;13.30;78.90;;;12.06;82.95;95766.94;4962355;28;20031;-70
2021/09/19 01:16:56;;;;;;;13.73;12.32;;;13.30;78.80;;;12.01;83.10;95764.13;4943503;28;20140;-70
2021/09/19 01:19:24;;;;;;;14.88;13.38;;;13.20;78.90;;;11.98;82.78;95768.97;4939870;28;20039;-70
2021/09/19 01:21:51;;;;;;;14.90;13.27;;;13.10;79.10;;;11.96;82.77;95772.63;4956535;28;20121;-68
2021/09/19 01:24:16;;;;;;;13.77;12.25;;;13.10;79.30;;;11.95;82.68;95775.47;4946828;28;20058;-69
2021/09/19 01:26:42;;;;;;;13.75;12.40;;;13.10;79.20;;;11.94;83.04;95777.28;4980704;28;20676;-67
2021/09/19 01:29:08;;;;;;;13.93;12.55;;;13.10;79.00;;;11.90;82.80;95770.81;4946144;28;20509;-68
2021/09/19 01:31:34;;;;;;;15.57;13.63;;;13.10;79.00;;;11.89;82.39;95769.19;4944237;28;20037;-68
2021/09/19 01:33:59;;;;;;;13.75;12.32;;;13.10;79.10;;;11.85;82.80;95769.81;4950697;28;20046;-68
2021/09/19 01:36:25;;;;;;;13.82;12.45;;;13.00;79.00;;;11.84;82.69;95768.19;4942719;28;20062;-67
2021/09/19 01:38:51;;;;;;;14.70;13.30;;;13.00;79.00;;;11.80;82.48;95761.72;4946243;28;20158;-68
2021/09/19 01:41:21;;;;;;;13.43;12.13;;;13.00;79.00;;;11.78;83.20;95761.06;4960981;28;20177;-68
2021/09/19 01:43:47;;;;;;;13.80;12.10;;;13.00;79.00;;;11.76;82.27;95763.88;4954610;28;20038;-68
2021/09/19 01:46:13;;;;;;;14.10;12.68;;;12.90;78.60;;;11.72;82.32;95754.78;4954180;28;20545;-68
2021/09/19 01:48:41;;;;;;;12.60;11.38;;;12.90;78.80;;;11.71;82.49;95752.34;4958779;28;20077;-68
2021/09/19 01:51:07;;;;;;;12.48;11.18;;;12.90;78.80;;;11.68;82.99;95752.75;4923896;28;20053;-68
2021/09/19 01:53:33;;;;;;;12.82;11.52;;;12.90;79.00;;;11.64;82.39;95745.28;4941797;28;20046;-68
2021/09/19 01:55:58;;;;;;;13.13;11.63;;;12.80;79.10;;;11.61;82.61;95748.31;4935504;28;20039;-68
2021/09/19 01:58:24;;;;;;;13.05;11.77;;;12.80;79.20;;;11.61;82.90;95737.78;4950987;28;20035;-67
2021/09/19 02:00:58;;;;;;;12.63;11.43;;;12.80;79.10;;;11.60;82.81;95743.25;4920280;28;20126;-67
2021/09/19 02:03:23;;;;;;;12.48;11.10;;;12.90;79.00;;;11.58;83.36;95732.09;4937488;28;20038;-67
2021/09/19 02:05:49;;;;;;;12.73;11.35;;;12.80;79.20;;;11.53;82.78;95732.69;4980086;28;20031;-68
2021/09/19 02:08:15;;;;;;;12.95;11.70;;;12.70;79.40;;;11.52;83.18;95735.53;4949119;28;20529;-68
2021/09/19 02:10:41;;;;;;;12.93;11.65;;;12.70;79.50;;;11.48;83.36;95729.88;4952318;28;20042;-68
2021/09/19 02:13:06;;;;;;;12.52;11.23;;;12.70;79.80;;;11.45;83.08;95727.66;4914082;28;20071;-68
2021/09/19 02:15:32;;;;;;;12.38;11.10;;;12.60;79.90;;;11.44;84.18;95723.41;4959918;28;20066;-70
2021/09/19 02:17:58;;;;;;;13.10;11.60;;;12.60;80.10;;;11.43;84.51;95727.03;4948018;28;20039;-68
2021/09/19 02:20:24;;;;;;;12.70;11.40;;;12.60;80.40;;;11.39;83.76;95717.94;4969129;28;20605;-68
2021/09/19 02:22:49;;;;;;;12.70;11.40;;;12.60;80.30;;;11.37;84.08;95719.16;4948664;28;20029;-68
2021/09/19 02:25:15;;;;;;;13.77;11.07;;;12.50;80.40;;;11.35;84.23;95717.53;4944166;28;20521;-68
2021/09/19 02:27:41;;;;;;;11.90;10.68;;;12.60;80.20;;;11.32;84.73;95711.88;4958461;28;20032;-69
2021/09/19 02:30:09;;;;;;;11.75;10.55;;;12.60;80.10;;;11.26;84.46;95713.47;4956065;28;20783;-69
2021/09/19 02:32:35;;;;;;;11.32;10.32;;;12.60;80.10;;;11.29;84.19;95720.16;4931022;28;20557;-68
2021/09/19 02:35:01;;;;;;;11.80;10.50;;;12.60;79.90;;;11.30;84.73;95711.22;4941058;28;20147;-68
2021/09/19 02:37:27;;;;;;;12.82;11.52;;;12.60;79.70;;;11.29;83.60;95707.78;4963860;28;20039;-68
2021/09/19 02:39:53;;;;;;;11.13;9.95;;;12.60;79.60;;;11.28;84.21;95708.00;4931495;28;20035;-68
2021/09/19 02:42:18;;;;;;;10.82;9.80;;;12.50;79.60;;;11.25;83.49;95706.56;4952955;28;20043;-68
2021/09/19 02:44:44;;;;;;;10.63;9.63;;;12.50;79.50;;;11.26;83.82;95713.47;4946183;28;20084;-68
2021/09/19 02:47:10;;;;;;;12.13;9.88;;;12.50;79.50;;;11.24;83.82;95706.78;4961778;28;20118;-69
2021/09/19 02:49:36;;;;;;;11.25;10.13;;;12.50;79.70;;;11.20;84.10;95702.94;4962402;28;20122;-69
2021/09/19 02:52:01;;;;;;;12.88;10.60;;;12.40;79.80;;;11.17;83.67;95703.34;4961305;28;20027;-68
2021/09/19 02:54:27;;;;;;;10.98;9.80;;;12.40;79.70;;;11.18;84.44;95700.50;4961625;28;20039;-69
2021/09/19 02:56:53;;;;;;;10.90;9.80;;;12.40;79.60;;;11.17;84.29;95698.91;4940129;28;20516;-68
2021/09/19 02:59:19;;;;;;;11.85;9.80;;;12.50;79.50;;;11.16;83.74;95694.63;4940229;28;20035;-68
2021/09/19 03:01:45;;;;;;;10.25;9.23;;;12.50;79.40;;;11.16;83.93;95691.19;4956389;28;20045;-68
2021/09/19 03:04:11;;;;;;;10.75;9.65;;;12.40;79.60;;;11.14;83.42;95685.34;4948577;28;20141;-68
2021/09/19 03:06:37;;;;;;;11.52;9.93;;;12.40;79.60;;;11.10;83.75;95687.56;4954727;28;20075;-68
2021/09/19 03:09:03;;;;;;;10.52;9.52;;;12.30;79.80;;;11.08;83.98;95686.13;4932468;28;20066;-68
2021/09/19 03:11:29;;;;;;;10.20;9.20;;;12.30;79.90;;;11.02;84.13;95682.47;4951125;28;20126;-68
2021/09/19 03:13:54;;;;;;;10.60;9.60;;;12.20;80.10;;;11.00;84.69;95676.59;4930970;28;20070;-68
2021/09/19 03:16:21;;;;;;;9.98;9.07;;;12.20;80.30;;;10.98;84.62;95674.19;4946880;28;20121;-68
2021/09/19 03:18:46;;;;;;;10.15;9.05;;;12.30;80.30;;;10.97;85.29;95667.28;4962045;28;20494;-68
2021/09/19 03:21:12;;;;;;;10.35;8.95;;;12.20;80.60;;;10.98;84.34;95679.44;4933410;28;20051;-68
2021/09/19 03:23:38;;;;;;;9.85;8.93;;;12.30;80.80;;;10.96;84.92;95665.69;4950713;28;20443;-68
2021/09/19 03:26:04;;;;;;;10.30;9.30;;;12.30;81.00;;;10.98;85.75;95658.38;4926733;28;20096;-68
2021/09/19 03:28:29;;;;;;;9.82;8.55;;;12.30;80.90;;;10.98;85.60;95653.13;4933759;28;20058;-68
2021/09/19 03:30:55;;;;;;;9.77;8.80;;;12.30;80.60;;;10.97;84.46;95651.50;4931942;28;20106;-68
2021/09/19 03:33:21;;;;;;;10.23;8.30;;;12.30;80.20;;;10.94;84.81;95645.84;4942944;28;20561;-68
2021/09/19 03:35:46;;;;;;;11.73;8.60;;;12.30;80.00;;;10.93;85.29;95645.03;4948573;28;20520;-68
2021/09/19 03:38:12;;;;;;;9.40;8.50;;;12.30;80.00;;;10.91;84.24;95651.50;4951187;28;20121;-68
2021/09/19 03:40:38;;;;;;;9.90;8.40;;;12.20;80.30;;;10.89;85.58;95643.81;4969325;28;20051;-68
2021/09/19 03:43:04;;;;;;;10.50;8.25;;;12.20;80.50;;;10.86;86.02;95646.81;4958166;28;20643;-68
2021/09/19 03:45:30;;;;;;;10.05;9.05;;;12.20;80.80;;;10.84;85.38;95640.97;4964513;28;20061;-68
2021/09/19 03:48:01;;;;;;;10.20;8.88;;;12.10;81.30;;;10.82;86.13;95640.34;4947910;28;20038;-69
2021/09/19 03:50:27;;;;;;;9.75;8.75;;;12.10;81.50;;;10.82;85.63;95631.66;4948570;28;20130;-68
2021/09/19 03:52:52;;;;;;;9.55;8.50;;;12.20;81.50;;;10.84;86.13;95637.53;4961663;28;20114;-68
2021/09/19 03:55:18;;;;;;;10.90;9.15;;;12.10;81.40;;;10.85;86.81;95637.31;4961989;28;20122;-68
2021/09/19 03:57:44;;;;;;;9.98;8.98;;;12.10;81.00;;;10.84;86.58;95635.69;4956106;28;20080;-68
2021/09/19 04:00:10;;;;;;;8.77;7.97;;;12.20;80.70;;;10.83;85.77;95634.09;4962108;28;20070;-68
2021/09/19 04:02:36;;;;;;;9.32;8.18;;;12.20;80.60;;;10.81;85.72;95635.28;4924014;28;20421;-68
2021/09/19 04:05:02;;;;;;;9.63;8.50;;;12.20;80.60;;;10.80;85.92;95631.06;4946644;28;20039;-68
2021/09/19 04:07:27;;;;;;;9.82;8.88;;;12.10;80.90;;;10.78;86.91;95628.63;4943419;28;20032;-69
2021/09/19 04:09:53;;;;;;;10.25;9.25;;;12.10;81.20;;;10.79;86.37;95637.31;4958077;28;20039;-68
2021/09/19 04:12:19;;;;;;;10.95;9.80;;;12.10;81.50;;;10.78;87.09;95636.50;4942620;28;20074;-68
2021/09/19 04:14:45;;;;;;;10.93;9.82;;;12.10;81.80;;;10.79;87.88;95643.41;4925439;28;20058;-68
2021/09/19 04:17:10;;;;;;;11.05;9.52;;;12.10;82.00;;;10.80;86.48;95638.94;4968803;28;20046;-68
2021/09/19 04:19:36;;;;;;;10.50;9.38;;;12.10;82.00;;;10.78;87.67;95636.50;4964567;28;20031;-68
2021/09/19 04:22:02;;;;;;;10.93;9.93;;;12.20;82.10;;;10.83;88.01;95643.78;4932533;28;20035;-68
2021/09/19 04:24:28;;;;;;;11.48;10.32;;;12.20;82.30;;;10.85;88.05;95644.41;4965197;28;20409;-68
2021/09/19 04:26:53;;;;;;;10.52;9.43;;;12.20;82.20;;;10.86;88.21;95638.94;4944772;28;20099;-68
2021/09/19 04:29:19;;;;;;;11.43;10.23;;;12.20;82.10;;;10.86;88.21;95641.56;4936494;28;20069;-68
2021/09/19 04:31:45;;;;;;;11.63;10.45;;;12.30;82.10;;;10.87;87.22;95645.84;4934829;28;20150;-68
2021/09/19 04:34:11;;;;;;;10.73;9.60;;;12.20;82.00;;;10.85;86.98;95639.94;4930285;28;20136;-68
2021/09/19 04:36:36;;;;;;;10.82;9.73;;;12.20;82.10;;;10.86;87.19;95646.03;4951860;28;20739;-68
2021/09/19 04:39:02;;;;;;;10.38;9.38;;;12.20;82.00;;;10.84;87.76;95646.22;4967601;28;20562;-68
2021/09/19 04:41:28;;;;;;;10.48;9.38;;;12.20;82.10;;;10.81;88.09;95651.88;4948422;28;20102;-68
2021/09/19 04:43:54;;;;;;;11.13;9.43;;;12.20;81.90;;;10.81;88.09;95657.16;4933888;28;20035;-68
2021/09/19 04:46:20;;;;;;;12.25;9.73;;;12.20;81.90;;;10.81;86.97;95662.41;4951948;28;20059;-68
2021/09/19 04:48:45;;;;;;;12.27;9.63;;;12.20;82.00;;;10.77;87.78;95657.75;4950283;28;20038;-68
2021/09/19 04:51:11;;;;;;;10.65;8.98;;;12.10;82.20;;;10.72;87.89;95663.63;4962731;28;20532;-68
2021/09/19 04:53:37;;;;;;;11.40;9.43;;;12.10;82.20;;;10.68;87.85;95667.69;4934337;28;20518;-69
2021/09/19 04:56:03;;;;;;;11.93;9.32;;;12.10;82.40;;;10.71;87.56;95672.53;4945366;28;20514;-68
2021/09/19 04:58:29;;;;;;;10.93;9.88;;;12.10;82.20;;;10.70;87.81;95676.19;4961377;28;20035;-69
2021/09/19 05:00:54;;;;;;;10.80;9.70;;;12.10;82.30;;;10.66;88.03;95673.13;4940254;28;20042;-68
2021/09/19 05:03:20;;;;;;;11.55;10.32;;;12.10;82.40;;;10.65;88.65;95670.72;4925020;28;20055;-68
2021/09/19 05:05:46;;;;;;;10.40;9.40;;;12.00;82.40;;;10.66;87.64;95670.50;4942859;28;20089;-68
2021/09/19 05:08:12;;;;;;;11.57;10.38;;;12.00;82.40;;;10.62;87.45;95681.59;4942894;28;20043;-68
2021/09/19 05:10:38;;;;;;;11.55;10.27;;;12.00;82.30;;;10.62;88.05;95678.97;4941267;28;20424;-68
2021/09/19 05:13:03;;;;;;;11.48;10.27;;;12.00;82.40;;;10.59;87.98;95668.84;4928762;29;20040;-68
2021/09/19 05:15:29;;;;;;;10.93;9.93;;;12.00;82.30;;;10.62;88.18;95677.16;4957132;28;20082;-68
2021/09/19 05:17:55;;;;;;;11.52;10.32;;;12.00;82.20;;;10.60;88.22;95676.53;4941615;28;20047;-68
2021/09/19 05:20:20;;;;;;;11.18;9.95;;;12.00;82.10;;;10.61;87.83;95677.34;4964186;28;20474;-68
2021/09/19 05:22:46;;;;;;;11.77;10.10;;;12.10;82.10;;;10.62;88.82;95678.97;4917011;29;20499;-68
2021/09/19 05:25:12;;;;;;;11.25;10.13;;;12.00;82.20;;;10.61;88.63;95672.09;4943230;28;20031;-68
2021/09/19 05:27:38;;;;;;;11.68;10.57;;;12.10;82.10;;;10.61;88.14;95674.72;4943952;28;20143;-68
2021/09/19 05:30:04;;;;;;;11.45;9.93;;;12.00;82.00;;;10.62;88.21;95673.72;4942299;28;20117;-68
2021/09/19 05:32:30;;;;;;;11.45;10.15;;;12.10;82.00;;;10.62;88.79;95677.16;4930372;28;20039;-68
2021/09/19 05:34:56;;;;;;;12.27;11.02;;;12.10;82.00;;;10.60;87.73;95683.63;4948291;28;20078;-69
2021/09/19 05:37:21;;;;;;;12.23;11.13;;;12.10;82.20;;;10.59;88.26;95682.00;4943357;28;20047;-70
2021/09/19 05:39:47;;;;;;;12.43;11.23;;;12.10;82.30;;;10.57;89.29;95671.69;4925849;29;20036;-65
2021/09/19 05:42:13;;;;;;;13.05;11.10;;;12.10;82.30;;;10.60;89.74;95681.00;4939198;28;20078;-70
2021/09/19 05:44:39;;;;;;;12.68;11.45;;;12.10;82.30;;;10.60;89.45;95681.81;4966694;28;20098;-70
2021/09/19 05:47:04;;;;;;;18.48;16.55;;;12.10;82.40;;;10.61;88.84;95685.25;4941041;28;20156;-71
2021/09/19 05:49:30;;;;;;;25.88;23.10;;;12.10;82.90;;;10.65;89.68;95689.13;4953922;28;20039;-68
2021/09/19 05:51:56;;;;;;;33.25;29.65;;;12.20;82.90;;;10.70;90.46;95689.31;4952741;28;20140;-68
2021/09/19 05:54:21;;;;;;;16.67;15.07;;;12.20;83.00;;;10.74;89.16;95690.53;4937237;28;20133;-68
2021/09/19 05:56:47;;;;;;;14.15;12.73;;;12.30;83.00;;;10.78;90.97;95694.38;4952492;28;20051;-68
2021/09/19 05:59:13;;;;;;;14.38;12.88;;;12.40;83.00;;;10.82;90.07;95694.78;4937608;28;20027;-67
2021/09/19 06:01:39;;;;;;;13.45;12.10;;;12.40;82.70;;;10.86;89.98;95698.66;4935877;28;20042;-69
2021/09/19 06:04:04;;;;;;;13.57;12.18;;;12.60;82.50;;;10.92;90.50;95696.03;4920534;29;20055;-68
2021/09/19 06:06:30;;;;;;;13.32;12.02;;;12.60;82.40;;;10.99;90.83;95693.41;4956290;28;20075;-68
2021/09/19 06:08:56;;;;;;;14.43;12.30;;;12.70;82.30;;;11.05;89.63;95696.03;4954183;28;20124;-68
2021/09/19 06:11:21;;;;;;;18.02;15.48;;;12.70;82.20;;;11.10;90.64;95687.56;4962271;28;20030;-69
2021/09/19 06:13:47;;;;;;;16.25;14.55;;;12.80;82.00;;;11.13;89.49;95684.53;4952658;28;20035;-69
2021/09/19 06:16:13;;;;;;;14.90;13.38;;;12.80;81.90;;;11.17;90.81;95682.28;4937081;28;20051;-69
2021/09/19 06:18:39;;;;;;;14.88;13.38;;;12.80;81.70;;;11.20;90.30;95687.16;4935574;28;20122;-69
2021/09/19 06:21:04;;;;;;;14.65;13.15;;;12.90;81.60;;;11.25;89.29;95684.72;4948737;28;20657;-69
2021/09/19 06:23:30;;;;;;;16.33;14.15;;;13.00;81.60;;;11.26;89.95;95679.22;4944152;29;20131;-69
2021/09/19 06:25:57;;;;;;;16.60;13.65;;;12.90;81.50;;;11.32;90.21;95680.28;4914824;29;20070;-69
2021/09/19 06:28:23;;;;;;;18.45;13.73;;;13.00;81.50;;;11.38;90.17;95671.53;4921492;29;20039;-69
2021/09/19 06:30:49;;;;;;;15.65;14.15;;;13.10;81.30;;;11.44;89.89;95675.19;4938088;29;20664;-69
2021/09/19 06:33:14;;;;;;;18.25;16.33;;;13.10;81.10;;;11.52;89.88;95678.41;4951391;28;20414;-68
2021/09/19 06:35:41;;;;;;;22.25;18.70;;;13.30;80.90;;;11.56;89.85;95674.38;4949076;29;20047;-68
2021/09/19 06:38:08;;;;;;;19.52;17.50;;;13.30;80.70;;;11.60;89.79;95665.03;4965158;28;20035;-68
2021/09/19 06:40:33;;;;;;;20.63;16.05;;;13.40;80.70;;;11.62;89.06;95655.09;4934716;28;20059;-69
2021/09/19 06:42:59;;;;;;;19.52;17.52;;;13.40;80.20;;;11.70;88.79;95666.41;4920179;28;20080;-71
2021/09/19 06:45:25;;;;;;;18.98;16.65;;;13.50;80.30;;;11.73;89.23;95666.00;4936461;29;20047;-72
2021/09/19 06:47:50;;;;;;;24.75;20.63;;;13.50;80.10;;;11.78;88.40;95668.84;4944485;28;20066;-72
2021/09/19 06:50:16;;;;;;;22.98;20.58;;;13.50;80.10;;;11.75;88.32;95669.25;4950841;28;20070;-71
2021/09/19 06:52:42;;;;;;;20.10;18.10;;;13.50;80.00;;;11.77;89.06;95661.94;4941537;29;20066;-72
2021/09/19 06:55:08;;;;;;;19.17;17.17;;;13.60;79.80;;;11.85;88.55;95662.56;4901745;29;20024;-69
2021/09/19 06:57:34;;;;;;;21.70;19.40;;;13.70;79.50;;;11.95;88.49;95665.56;4937856;28;20579;-70
2021/09/19 07:00:01;;;;;;;17.15;15.35;;;13.90;79.40;;;12.05;88.59;95665.16;4917485;29;20056;-70
2021/09/19 07:02:27;;;;;;;22.25;19.58;;;14.10;79.00;;;12.21;88.21;95664.66;4949132;28;20117;-71
2021/09/19 07:04:53;;;;;;;19.30;17.40;;;14.40;78.30;;;12.40;88.42;95667.41;4927806;29;20481;-67
2021/09/19 07:07:18;;;;;;;17.15;15.35;;;14.60;78.10;;;12.56;87.78;95674.84;4939616;28;20047;-70
2021/09/19 07:09:45;;;;;;;14.55;13.10;;;14.80;77.00;;;12.70;87.27;95668.47;4926591;29;20039;-69
2021/09/19 07:12:10;;;;;;;14.70;13.20;;;14.90;76.10;;;12.82;86.69;95663.31;4950988;28;20038;-70
2021/09/19 07:14:36;;;;;;;14.60;12.98;;;15.10;75.40;;;12.96;86.66;95659.56;4947519;28;20039;-71
2021/09/19 07:17:02;;;;;;;15.45;13.70;;;15.20;75.00;;;13.06;86.37;95657.25;4933767;28;20093;-70
2021/09/19 07:19:28;;;;;;;14.18;12.68;;;15.40;75.30;;;13.23;85.49;95660.22;4932814;29;20478;-67
2021/09/19 07:21:54;;;;;;;15.32;13.68;;;15.50;74.50;;;13.37;85.84;95659.09;4948677;28;20113;-67
2021/09/19 07:24:19;;;;;;;15.77;13.38;;;15.80;74.20;;;13.61;86.09;95659.25;4949648;28;20142;-67
2021/09/19 07:26:45;;;;;;;14.30;12.70;;;16.20;73.90;;;13.86;86.16;95661.84;4935511;28;20059;-67
2021/09/19 07:29:11;;;;;;;14.73;13.23;;;16.60;73.10;;;14.10;85.30;95656.50;4917621;29;20059;-68
2021/09/19 07:31:37;;;;;;;13.15;11.85;;;16.80;71.30;;;14.32;84.59;95663.97;4922181;29;20094;-68
2021/09/19 07:34:03;;;;;;;14.02;12.55;;;17.00;70.80;;;14.47;83.58;95661.75;4929901;28;20174;-68
2021/09/19 07:36:32;;;;;;;16.42;14.80;;;17.00;70.70;;;14.57;82.33;95656.75;4946914;28;20470;-67
2021/09/19 07:39:05;;;;;;;19.10;17.13;;;16.90;70.70;;;14.66;81.23;95663.31;4933629;28;20039;-66
2021/09/19 07:41:31;;;;;;;21.88;19.45;;;16.90;70.40;;;14.66;82.17;95662.50;4931262;29;20530;-67
2021/09/19 07:43:57;;;;;;;21.92;19.80;;;16.70;70.00;;;14.64;81.42;95669.88;4919904;29;20043;-67
2021/09/19 07:46:23;;;;;;;23.52;21.02;;;16.60;69.90;;;14.56;80.48;95665.72;4944631;28;20161;-67
2021/09/19 07:48:50;;;;;;;24.48;21.15;;;16.40;70.20;;;14.51;80.04;95670.88;4945544;28;20039;-67
2021/09/19 07:51:16;;;;;;;24.40;21.27;;;16.30;71.10;;;14.49;79.72;95683.53;4950311;28;20123;-67
2021/09/19 07:53:42;;;;;;;25.58;22.40;;;16.20;71.10;;;14.39;80.37;95685.84;4923219;29;20118;-67
2021/09/19 07:56:08;;;;;;;27.92;24.98;;;16.10;70.80;;;14.33;79.46;95684.91;4926201;29;20046;-67
2021/09/19 07:58:34;;;;;;;40.00;34.47;;;16.10;71.70;;;14.30;80.08;95684.53;4920024;29;20039;-67
2021/09/19 08:00:59;;;;;;;33.63;28.20;;;16.10;71.90;;;14.27;80.02;95680.50;4911643;28;20098;-67
2021/09/19 08:03:25;;;;;;;27.90;22.33;;;16.10;72.00;;;14.29;79.34;95682.94;4934273;29;20044;-67
2021/09/19 08:05:51;;;;;;;24.55;21.58;;;16.10;72.10;;;14.21;80.00;95686.66;4932798;28;20065;-67
2021/09/19 08:08:17;;;;;;;25.85;22.08;;;16.00;72.40;;;14.16;79.82;95685.72;4935373;28;20086;-67
2021/09/19 08:10:42;;;;;;;25.55;22.25;;;15.80;72.40;;;14.12;81.23;95681.91;4934114;28;20038;-67
2021/09/19 08:13:08;;;;;;;25.50;21.88;;;15.80;73.00;;;14.04;80.11;95681.19;4929999;28;20062;-67
2021/09/19 08:15:34;;;;;;;25.02;21.83;;;15.80;72.90;;;14.01;80.64;95691.38;4906851;29;20067;-67
2021/09/19 08:18:00;;;;;;;27.33;22.05;;;15.70;73.00;;;13.97;80.57;95690.19;4930613;29;20042;-66
2021/09/19 08:20:25;;;;;;;25.52;21.67;;;15.70;73.40;;;13.98;80.29;95697.09;4950572;28;20526;-67
2021/09/19 08:22:51;;;;;;;27.33;23.05;;;15.80;73.50;;;13.97;81.69;95698.94;4919486;28;20126;-67
2021/09/19 08:25:18;;;;;;;25.33;22.42;;;15.70;73.60;;;13.94;81.68;95694.09;4953346;28;20062;-67
2021/09/19 08:27:44;;;;;;;25.00;21.98;;;15.70;74.10;;;13.93;81.57;95689.81;4925728;29;20656;-68
2021/09/19 08:30:12;;;;;;;25.98;22.48;;;15.70;74.10;;;14.00;81.67;95700.31;4913836;29;20123;-67
2021/09/19 08:32:38;;;;;;;25.88;22.10;;;15.80;74.30;;;14.04;81.51;95691.75;4941793;29;20039;-67
2021/09/19 08:35:05;;;;;;;26.58;23.80;;;15.90;73.70;;;14.03;81.63;95690.16;4960301;28;20470;-67
2021/09/19 08:37:31;;;;;;;25.23;22.55;;;15.80;73.60;;;14.05;81.15;95698.66;4932799;28;20062;-68
2021/09/19 08:39:56;;;;;;;25.42;22.67;;;15.80;73.60;;;14.01;81.93;95694.00;4948442;28;20067;-68
2021/09/19 08:42:22;;;;;;;25.73;23.02;;;15.80;73.80;;;14.00;81.46;95695.84;4945183;28;20040;-70
2021/09/19 08:44:48;;;;;;;25.35;22.75;;;15.80;74.30;;;14.05;81.97;95703.94;4941184;28;20121;-70
2021/09/19 08:47:14;;;;;;;24.75;22.05;;;16.00;74.50;;;14.09;81.96;95702.47;4933522;28;20059;-71
2021/09/19 08:49:40;;;;;;;21.48;19.08;;;16.00;73.90;;;14.09;81.75;95699.03;4933834;28;20067;-70
2021/09/19 08:52:05;;;;;;;20.45;18.45;;;16.00;73.70;;;14.14;81.38;95698.34;4918173;29;20070;-71
2021/09/19 08:54:31;;;;;;;20.95;18.58;;;16.10;73.30;;;14.26;81.20;95689.47;4913860;29;20032;-69
2021/09/19 08:56:57;;;;;;;20.98;18.73;;;16.20;72.90;;;14.33;81.76;95689.38;4931947;28;20094;-67
2021/09/19 08:59:22;;;;;;;20.40;18.30;;;16.50;72.60;;;14.50;81.57;95694.91;4949719;28;20188;-68
2021/09/19 09:01:59;;;;;;;19.10;17.10;;;16.80;71.20;;;14.78;80.24;95697.78;4927274;28;20459;-68
2021/09/19 09:04:25;;;;;;;17.90;15.88;;;17.40;69.60;;;15.05;81.04;95681.53;4939073;28;20411;-74
2021/09/19 09:06:52;;;;;;;17.35;15.65;;;17.80;68.70;;;15.28;79.42;95692.97;4946243;28;20046;-67
2021/09/19 09:09:18;;;;;;;22.75;19.73;;;18.00;67.70;;;15.62;79.60;95690.63;4950486;28;20412;-67
2021/09/19 09:12:11;;;;;;;16.65;14.95;;;18.70;65.80;;;16.20;77.26;95687.91;4915997;29;20031;-67
2021/09/19 09:14:51;;;;;;;14.88;13.38;;;19.60;63.60;;;16.83;76.38;95676.44;4934384;28;20071;-68
2021/09/19 09:17:25;;;;;;;14.60;13.18;;;20.40;61.70;;;17.26;74.57;95674.25;4933941;28;20134;-66
2021/09/19 09:20:10;;;;;;;15.05;13.32;;;20.60;60.30;;;17.60;75.85;95683.81;4918004;29;20047;-68
2021/09/19 09:22:36;;;;;;;14.68;13.18;;;21.10;59.40;;;18.15;74.65;95672.41;4957704;28;20039;-69
2021/09/19 09:25:15;;;;;;;13.35;12.05;;;21.80;56.80;;;18.63;70.63;95666.34;4936427;29;20039;-67
2021/09/19 09:27:46;;;;;;;12.73;11.35;;;22.20;54.80;;;19.18;69.16;95667.94;4950773;28;20039;-66
2021/09/19 09:30:20;;;;;;;11.48;10.38;;;23.10;53.10;;;19.68;66.50;95660.63;4908341;29;20063;-65
2021/09/19 09:33:04;;;;;;;11.00;9.85;;;23.40;51.30;;;20.22;64.32;95652.38;4930389;29;20127;-70
2021/09/19 09:35:40;;;;;;;11.30;9.65;;;24.10;49.50;;;20.75;64.21;95659.28;4929647;29;20032;-67
2021/09/19 09:38:19;;;;;;;9.10;8.23;;;24.70;48.20;;;21.34;61.34;95657.00;4945746;29;20447;-69
2021/09/19 09:40:44;;;;;;;11.65;9.75;;;25.60;45.20;;;21.89;64.30;95663.38;4945091;29;20146;-68
2021/09/19 09:43:12;;;;;;;8.70;7.80;;;26.30;43.90;;;22.26;61.38;95656.88;4944773;28;20538;-69
2021/09/19 09:45:40;;;;;;;8.63;7.07;;;26.40;42.60;;;22.67;59.95;95648.69;4933853;28;20066;-69
2021/09/19 09:48:38;;;;;;;11.50;9.60;;;27.40;41.50;;;23.19;55.38;95653.47;4924132;29;20035;-69
2021/09/19 09:51:04;;;;;;;7.88;6.82;;;28.20;39.20;;;23.72;60.37;95646.34;4942303;28;20060;-69
2021/09/19 09:53:29;;;;;;;7.65;6.63;;;29.00;37.10;;;24.26;60.17;95645.28;4938022;29;20423;-69
2021/09/19 09:55:58;;;;;;;6.85;5.72;;;30.00;36.80;;;24.96;57.51;95641.97;4914879;29;20039;-68
2021/09/19 09:58:24;;;;;;;6.57;5.47;;;30.60;35.20;;;25.32;58.90;95645.75;4915346;29;20039;-69
2021/09/19 10:00:54;;;;;;;6.38;5.75;;;29.80;36.00;;;25.26;52.53;95652.31;4934509;29;20107;-69
2021/09/19 10:03:20;;;;;;;6.15;5.38;;;29.60;35.10;;;25.58;55.83;95648.84;4921792;29;20031;-69
2021/09/19 10:05:46;;;;;;;14.35;10.98;;;30.10;34.60;;;25.59;54.12;95645.06;4938036;29;20032;-68